createdAt,value
2022-11-14T00:00:55.016Z,7.77
2022-11-14T00:03:21.627Z,7.75
2022-11-14T00:05:48.146Z,7.72
2022-11-14T00:08:20.419Z,7.68
2022-11-14T00:10:48.845Z,7.68
2022-11-14T00:13:16.806Z,7.62
2022-11-14T00:15:44.358Z,7.63
2022-11-14T00:18:11.068Z,7.62
2022-11-14T00:20:37.520Z,7.62
2022-11-14T00:23:04.150Z,7.59
2022-11-14T00:25:32.490Z,7.57
2022-11-14T00:27:59.749Z,7.50
2022-11-14T00:30:27.373Z,7.49
2022-11-14T00:32:54.032Z,7.46
2022-11-14T00:35:20.822Z,7.43
2022-11-14T00:37:47.254Z,7.39
2022-11-14T00:40:14.817Z,7.40
2022-11-14T00:42:41.542Z,7.42
2022-11-14T00:45:08.426Z,7.37
2022-11-14T00:47:34.927Z,7.35
2022-11-14T00:50:01.414Z,7.33
2022-11-14T00:52:27.874Z,7.27
2022-11-14T00:54:54.311Z,7.20
2022-11-14T00:57:20.810Z,7.17
2022-11-14T00:59:47.671Z,7.11
2022-11-14T01:02:14.275Z,7.07
2022-11-14T01:04:40.753Z,7.05
2022-11-14T01:07:07.230Z,7.03
2022-11-14T01:09:34.110Z,7.00
2022-11-14T01:12:00.640Z,7.00
2022-11-14T01:14:27.243Z,6.99
2022-11-14T01:16:53.713Z,6.97
2022-11-14T01:19:20.198Z,6.90
2022-11-14T01:21:46.662Z,6.82
2022-11-14T01:24:13.140Z,6.78
2022-11-14T01:26:39.597Z,6.73
2022-11-14T01:29:06.103Z,6.78
2022-11-14T01:31:32.554Z,6.80
2022-11-14T01:33:59.091Z,6.80
2022-11-14T01:36:25.641Z,6.81
2022-11-14T01:38:53.838Z,6.79
2022-11-14T01:41:20.900Z,6.77
2022-11-14T01:43:47.705Z,6.80
2022-11-14T01:46:23.355Z,6.78
2022-11-14T01:49:01.262Z,6.73
2022-11-14T01:51:42.446Z,6.72
2022-11-14T01:54:15.114Z,6.74
2022-11-14T01:56:50.419Z,6.69
2022-11-14T01:59:23.106Z,6.73
2022-11-14T02:01:51.661Z,6.70
2022-11-14T02:04:22.696Z,6.71
2022-11-14T02:06:52.218Z,6.65
2022-11-14T02:09:18.677Z,6.58
2022-11-14T02:11:47.109Z,6.57
2022-11-14T02:14:13.656Z,6.57
2022-11-14T02:16:51.592Z,6.56
2022-11-14T02:19:45.037Z,6.51
2022-11-14T02:22:11.577Z,6.46
2022-11-14T02:24:38.057Z,6.37
2022-11-14T02:27:06.342Z,6.29
2022-11-14T02:29:33.762Z,6.28
2022-11-14T02:32:00.268Z,6.25
2022-11-14T02:34:26.771Z,6.20
2022-11-14T02:36:53.546Z,6.16
2022-11-14T02:39:19.991Z,6.07
2022-11-14T02:41:46.485Z,6.07
2022-11-14T02:44:13.141Z,6.02
2022-11-14T02:46:39.703Z,5.99
2022-11-14T02:49:06.163Z,5.92
2022-11-14T02:51:33.092Z,5.89
2022-11-14T02:53:59.564Z,5.80
2022-11-14T02:56:26.022Z,5.76
2022-11-14T02:58:52.995Z,5.74
2022-11-14T03:01:21.212Z,5.73
2022-11-14T03:03:48.226Z,5.72
2022-11-14T03:06:14.774Z,5.74
2022-11-14T03:08:41.245Z,5.77
2022-11-14T03:11:09.743Z,5.76
2022-11-14T03:13:36.753Z,5.73
2022-11-14T03:16:11.300Z,5.70
2022-11-14T03:18:37.921Z,5.71
2022-11-14T03:21:13.274Z,5.72
2022-11-14T03:23:39.874Z,5.77
2022-11-14T03:26:08.607Z,5.82
2022-11-14T03:28:36.285Z,5.86
2022-11-14T03:31:03.218Z,5.89
2022-11-14T03:33:30.040Z,5.86
2022-11-14T03:35:56.487Z,5.89
2022-11-14T03:38:23.216Z,5.88
2022-11-14T03:40:51.606Z,5.89
2022-11-14T03:43:19.227Z,5.88
2022-11-14T03:45:46.791Z,5.84
2022-11-14T03:48:13.843Z,5.84
2022-11-14T03:50:41.567Z,5.83
2022-11-14T03:53:08.455Z,5.80
2022-11-14T03:55:34.991Z,5.81
2022-11-14T03:58:01.813Z,5.78
2022-11-14T04:00:29.006Z,5.80
2022-11-14T04:02:58.392Z,5.86
2022-11-14T04:05:25.223Z,5.89
2022-11-14T04:07:51.762Z,5.91
2022-11-14T04:10:18.681Z,5.90
2022-11-14T04:12:52.863Z,5.83
2022-11-14T04:15:20.555Z,5.84
2022-11-14T04:17:47.390Z,5.83
2022-11-14T04:20:15.244Z,5.78
2022-11-14T04:22:41.844Z,5.77
2022-11-14T04:25:09.347Z,5.72
2022-11-14T04:27:36.236Z,5.68
2022-11-14T04:30:03.861Z,5.65
2022-11-14T04:32:30.495Z,5.66
2022-11-14T04:34:57.237Z,5.71
2022-11-14T04:37:24.119Z,5.73
2022-11-14T04:39:50.593Z,5.77
2022-11-14T04:42:17.072Z,5.76
2022-11-14T04:44:43.630Z,5.77
2022-11-14T04:47:10.132Z,5.78
2022-11-14T04:49:36.678Z,5.77
2022-11-14T04:52:03.240Z,5.75
2022-11-14T04:54:29.685Z,5.76
2022-11-14T04:56:56.167Z,5.75
2022-11-14T04:59:22.717Z,5.79
2022-11-14T05:01:49.448Z,5.84
2022-11-14T05:04:16.073Z,5.86
2022-11-14T05:06:42.656Z,5.91
2022-11-14T05:09:09.684Z,5.94
2022-11-14T05:11:36.140Z,5.96
2022-11-14T05:14:02.633Z,5.97
2022-11-14T05:16:29.209Z,5.92
2022-11-14T05:18:55.716Z,5.89
2022-11-14T05:21:22.225Z,5.88
2022-11-14T05:23:48.677Z,5.86
2022-11-14T05:26:17.083Z,5.81
2022-11-14T05:28:43.595Z,5.79
2022-11-14T05:31:22.354Z,5.66
2022-11-14T05:33:48.930Z,5.66
2022-11-14T05:36:16.938Z,5.65
2022-11-14T05:38:43.680Z,5.70
2022-11-14T05:41:13.104Z,5.67
2022-11-14T05:43:40.194Z,5.67
2022-11-14T05:46:10.422Z,5.74
2022-11-14T05:48:37.408Z,5.72
2022-11-14T05:51:05.452Z,5.66
2022-11-14T05:53:33.446Z,5.60
2022-11-14T05:56:04.612Z,5.62
2022-11-14T05:58:35.050Z,5.66
2022-11-14T06:01:12.682Z,5.67
2022-11-14T06:03:41.496Z,5.73
2022-11-14T06:06:09.818Z,5.78
2022-11-14T06:08:36.835Z,5.80
2022-11-14T06:11:06.596Z,5.84
2022-11-14T06:13:33.678Z,5.83
2022-11-14T06:16:01.673Z,5.88
2022-11-14T06:18:29.632Z,5.89
2022-11-14T06:21:08.509Z,5.84
2022-11-14T06:23:34.927Z,5.77
2022-11-14T06:26:03.260Z,5.76
2022-11-14T06:28:30.915Z,5.70
2022-11-14T06:30:59.945Z,5.67
2022-11-14T06:33:27.888Z,5.69
2022-11-14T06:36:01.657Z,5.64
2022-11-14T06:38:30.784Z,5.70
2022-11-14T06:41:11.651Z,5.71
2022-11-14T06:43:41.094Z,5.73
2022-11-14T06:46:09.805Z,5.70
2022-11-14T06:48:37.194Z,5.73
2022-11-14T06:51:04.862Z,5.79
2022-11-14T06:53:33.975Z,5.82
2022-11-14T06:56:03.249Z,5.90
2022-11-14T06:58:32.298Z,5.95
2022-11-14T07:01:07.585Z,5.98
2022-11-14T07:03:34.790Z,6.02
2022-11-14T07:06:02.231Z,6.04
2022-11-14T07:08:29.353Z,6.08
2022-11-14T07:11:02.479Z,6.11
2022-11-14T07:13:28.937Z,6.13
2022-11-14T07:15:55.879Z,6.11
2022-11-14T07:18:22.434Z,6.13
2022-11-14T07:20:49.027Z,6.14
2022-11-14T07:23:21.486Z,6.19
2022-11-14T07:25:49.394Z,6.32
2022-11-14T07:28:16.383Z,6.37
2022-11-14T07:30:42.910Z,6.39
2022-11-14T07:33:10.234Z,6.43
2022-11-14T07:35:39.739Z,6.45
2022-11-14T07:38:06.260Z,6.51
2022-11-14T07:40:32.792Z,6.59
2022-11-14T07:43:00.813Z,6.78
2022-11-14T07:45:29.018Z,7.00
2022-11-14T07:48:02.406Z,7.21
2022-11-14T07:50:30.688Z,7.38
2022-11-14T07:52:57.665Z,7.50
2022-11-14T07:55:24.839Z,7.55
2022-11-14T07:57:54.986Z,7.59
2022-11-14T08:00:21.563Z,7.70
2022-11-14T08:02:48.284Z,7.77
2022-11-14T08:05:14.849Z,7.86
2022-11-14T08:07:41.462Z,7.96
2022-11-14T08:10:08.854Z,8.01
2022-11-14T08:12:35.329Z,8.00
2022-11-14T08:15:02.298Z,8.00
2022-11-14T08:17:28.806Z,8.03
2022-11-14T08:19:55.232Z,8.09
2022-11-14T08:22:21.923Z,8.14
2022-11-14T08:24:48.586Z,8.10
2022-11-14T08:27:15.183Z,8.14
2022-11-14T08:29:41.666Z,8.16
2022-11-14T08:32:08.160Z,8.18
2022-11-14T08:34:34.651Z,8.24
2022-11-14T08:37:01.476Z,8.26
2022-11-14T08:39:28.118Z,8.27
2022-11-14T08:41:55.428Z,8.27
2022-11-14T08:44:21.904Z,8.25
2022-11-14T08:46:49.691Z,8.22
2022-11-14T08:49:16.211Z,8.23
2022-11-14T08:51:42.653Z,8.30
2022-11-14T08:54:09.219Z,8.38
2022-11-14T08:56:35.693Z,8.34
2022-11-14T08:59:05.442Z,8.22
2022-11-14T09:01:34.775Z,8.22
2022-11-14T09:04:02.217Z,8.30
2022-11-14T09:06:29.001Z,8.38
2022-11-14T09:08:55.556Z,8.41
2022-11-14T09:11:22.523Z,8.42
2022-11-14T09:13:48.979Z,8.42
2022-11-14T09:16:15.455Z,8.49
2022-11-14T09:18:42.040Z,8.51
2022-11-14T09:21:09.446Z,8.39
2022-11-14T09:23:36.389Z,8.46
2022-11-14T09:26:07.647Z,8.40
2022-11-14T09:28:34.898Z,8.37
2022-11-14T09:31:07.117Z,8.35
2022-11-14T09:33:34.540Z,8.35
2022-11-14T09:36:04.306Z,8.32
2022-11-14T09:38:37.034Z,8.35
2022-11-14T09:41:13.842Z,8.33
2022-11-14T09:44:25.570Z,8.36
2022-11-14T09:47:01.379Z,8.34
2022-11-14T09:49:37.784Z,8.33
2022-11-14T09:52:22.039Z,8.31
2022-11-14T09:55:01.331Z,8.38
2022-11-14T09:57:28.994Z,8.41
2022-11-14T09:59:56.641Z,8.48
2022-11-14T10:02:52.614Z,8.48
2022-11-14T10:05:33.015Z,8.45
2022-11-14T10:08:27.089Z,8.53
2022-11-14T10:10:58.341Z,8.55
2022-11-14T10:13:41.693Z,8.52
2022-11-14T10:16:23.598Z,8.54
2022-11-14T10:19:29.249Z,8.52
2022-11-14T10:22:21.815Z,8.51
2022-11-14T10:25:20.150Z,8.50
2022-11-14T10:28:05.481Z,8.53
2022-11-14T10:30:40.768Z,8.52
2022-11-14T10:33:19.911Z,8.53
2022-11-14T10:35:55.564Z,8.50
2022-11-14T10:38:34.566Z,8.56
2022-11-14T10:41:05.120Z,8.54
2022-11-14T10:43:39.635Z,8.50
2022-11-14T10:46:47.608Z,8.45
2022-11-14T10:49:22.763Z,8.49
2022-11-14T10:51:59.730Z,8.52
2022-11-14T10:54:47.167Z,8.59
2022-11-14T10:57:17.090Z,8.53
2022-11-14T10:59:43.861Z,8.58
2022-11-14T11:02:11.153Z,8.65
2022-11-14T11:04:40.395Z,8.72
2022-11-14T11:07:06.916Z,8.77
2022-11-14T11:09:54.940Z,8.85
2022-11-14T11:12:23.452Z,8.81
2022-11-14T11:15:14.206Z,8.86
2022-11-14T11:17:57.715Z,8.92
2022-11-14T11:20:29.344Z,8.97
2022-11-14T11:23:26.338Z,8.99
2022-11-14T11:26:07.998Z,9.06
2022-11-14T11:28:36.833Z,9.10
2022-11-14T11:31:09.324Z,9.17
2022-11-14T11:33:38.587Z,9.25
2022-11-14T11:36:18.463Z,9.33
2022-11-14T11:38:46.119Z,9.40
2022-11-14T11:44:19.157Z,9.47
2022-11-14T11:46:59.246Z,9.53
2022-11-14T11:49:48.621Z,9.56
2022-11-14T11:52:28.544Z,9.61
2022-11-14T11:54:55.034Z,9.69
2022-11-14T11:57:28.321Z,9.80
2022-11-14T12:00:04.032Z,9.78
2022-11-14T12:02:30.824Z,9.75
2022-11-14T12:04:58.868Z,9.80
2022-11-14T12:07:42.954Z,9.85
2022-11-14T12:10:26.539Z,9.92
2022-11-14T12:13:11.690Z,9.90
2022-11-14T12:15:59.634Z,9.89
2022-11-14T12:18:46.419Z,10.01
2022-11-14T12:21:19.737Z,10.01
2022-11-14T12:23:58.659Z,10.00
2022-11-14T12:26:44.819Z,10.02
2022-11-14T12:29:46.094Z,9.99
2022-11-14T12:32:19.314Z,9.93
2022-11-14T12:34:48.072Z,9.94
2022-11-14T12:37:23.675Z,9.94
2022-11-14T12:40:05.115Z,9.88
2022-11-14T12:42:32.265Z,9.90
2022-11-14T12:44:58.738Z,9.91
2022-11-14T12:47:29.038Z,9.96
2022-11-14T12:49:56.597Z,10.04
2022-11-14T12:52:44.501Z,10.01
2022-11-14T12:55:26.331Z,10.14
2022-11-14T12:58:23.988Z,10.25
2022-11-14T13:00:50.400Z,10.16
2022-11-14T13:03:41.724Z,10.19
2022-11-14T13:06:43.721Z,10.14
2022-11-14T13:09:10.234Z,10.10
2022-11-14T13:11:59.631Z,10.02
2022-11-14T13:14:45.160Z,9.92
2022-11-14T13:17:36.076Z,9.89
2022-11-14T13:20:49.507Z,9.85
2022-11-14T13:23:28.561Z,9.83
2022-11-14T13:26:21.472Z,9.84
2022-11-14T13:28:50.918Z,9.77
2022-11-14T13:31:17.560Z,9.79
2022-11-14T13:33:52.192Z,9.76
2022-11-14T13:36:39.990Z,9.75
2022-11-14T13:39:23.768Z,9.77
2022-11-14T13:42:17.036Z,9.75
2022-11-14T13:45:14.290Z,9.72
2022-11-14T13:48:05.393Z,9.73
2022-11-14T13:50:36.878Z,9.71
2022-11-14T13:53:12.615Z,9.67
2022-11-14T13:56:04.771Z,9.69
2022-11-14T13:58:55.598Z,9.63
2022-11-14T14:01:40.207Z,9.65
2022-11-14T14:04:31.674Z,9.64
2022-11-14T14:07:07.213Z,9.61
2022-11-14T14:10:08.441Z,9.64
2022-11-14T14:12:38.989Z,9.65
2022-11-14T14:15:29.678Z,9.61
2022-11-14T14:18:01.068Z,9.60
2022-11-14T14:21:02.786Z,9.61
2022-11-14T14:24:01.435Z,9.60
2022-11-14T14:26:48.870Z,9.61
2022-11-14T14:29:30.830Z,9.62
2022-11-14T14:32:11.862Z,9.62
2022-11-14T14:34:41.757Z,9.65
2022-11-14T14:37:19.889Z,9.66
2022-11-14T14:40:08.910Z,9.63
2022-11-14T14:42:45.949Z,9.60
2022-11-14T14:45:18.562Z,9.57
2022-11-14T14:47:48.512Z,9.58
2022-11-14T14:50:23.663Z,9.60
2022-11-14T14:53:01.217Z,9.55
2022-11-14T14:55:33.376Z,9.55
2022-11-14T14:58:29.997Z,9.53
2022-11-14T15:01:01.439Z,9.53
2022-11-14T15:03:36.727Z,9.54
2022-11-14T15:06:07.758Z,9.54
2022-11-14T15:08:39.041Z,9.55
2022-11-14T15:11:06.506Z,9.56
2022-11-14T15:13:34.477Z,9.48
2022-11-14T15:16:03.231Z,9.48
2022-11-14T15:18:32.602Z,9.48
2022-11-14T15:21:17.534Z,9.50
2022-11-14T15:23:44.078Z,9.46
2022-11-14T15:26:17.445Z,9.46
2022-11-14T15:28:45.085Z,9.44
2022-11-14T15:31:22.348Z,9.45
2022-11-14T15:34:05.070Z,9.46
2022-11-14T15:36:31.609Z,9.44
2022-11-14T15:39:27.400Z,9.42
2022-11-14T15:42:19.745Z,9.44
2022-11-14T15:44:47.120Z,9.43
2022-11-14T15:47:19.884Z,9.41
2022-11-14T15:50:24.997Z,9.40
2022-11-14T15:52:59.345Z,9.46
2022-11-14T15:55:26.218Z,9.44
2022-11-14T15:58:13.675Z,9.45
2022-11-14T16:00:52.228Z,9.40
2022-11-14T16:03:21.829Z,9.40
2022-11-14T16:05:48.431Z,9.40
2022-11-14T16:08:14.926Z,9.40
2022-11-14T16:10:41.369Z,9.39
2022-11-14T16:13:07.885Z,9.40
2022-11-14T16:15:34.709Z,9.42
2022-11-14T16:18:02.014Z,9.42
2022-11-14T16:20:32.009Z,9.39
2022-11-14T16:23:01.131Z,9.36
2022-11-14T16:25:30.471Z,9.39
2022-11-14T16:27:57.125Z,9.42
2022-11-14T16:30:25.560Z,9.36
2022-11-14T16:32:52.930Z,9.35
2022-11-14T16:35:24.870Z,9.37
2022-11-14T16:37:52.234Z,9.39
2022-11-14T16:40:29.939Z,9.36
2022-11-14T16:43:01.074Z,9.40
2022-11-14T16:45:28.259Z,9.41
2022-11-14T16:47:54.872Z,9.37
2022-11-14T16:50:21.694Z,9.34
2022-11-14T16:52:48.269Z,9.35
2022-11-14T16:55:15.030Z,9.32
2022-11-14T16:57:41.500Z,9.33
2022-11-14T17:00:11.147Z,9.30
2022-11-14T17:02:39.797Z,9.28
2022-11-14T17:05:06.718Z,9.29
2022-11-14T17:07:33.545Z,9.26
2022-11-14T17:10:00.819Z,9.26
2022-11-14T17:12:28.593Z,9.24
2022-11-14T17:14:55.068Z,9.24
2022-11-14T17:17:21.826Z,9.29
2022-11-14T17:19:48.692Z,9.29
2022-11-14T17:22:16.655Z,9.31
2022-11-14T17:24:43.408Z,9.32
2022-11-14T17:27:10.055Z,9.31
2022-11-14T17:29:36.705Z,9.26
2022-11-14T17:32:04.295Z,9.23
2022-11-14T17:34:32.051Z,9.23
2022-11-14T17:36:58.585Z,9.23
2022-11-14T17:39:25.137Z,9.24
2022-11-14T17:41:51.579Z,9.26
2022-11-14T17:44:19.027Z,9.26
2022-11-14T17:46:47.436Z,9.23
2022-11-14T17:49:13.923Z,9.26
2022-11-14T17:51:40.403Z,9.25
2022-11-14T17:54:07.096Z,9.28
2022-11-14T17:56:33.858Z,9.26
2022-11-14T17:59:00.505Z,9.25
2022-11-14T18:01:28.691Z,9.25
2022-11-14T18:03:59.289Z,9.28
2022-11-14T18:06:28.280Z,9.30
2022-11-14T18:08:54.843Z,9.29
2022-11-14T18:11:21.652Z,9.31
2022-11-14T18:13:48.219Z,9.29
2022-11-14T18:16:19.644Z,9.26
2022-11-14T18:18:46.462Z,9.25
2022-11-14T18:21:18.323Z,9.27
2022-11-14T18:23:53.636Z,9.25
2022-11-14T18:26:23.173Z,9.28
2022-11-14T18:28:57.847Z,9.26
2022-11-14T18:31:25.306Z,9.25
2022-11-14T18:33:52.069Z,9.26
2022-11-14T18:36:19.024Z,9.28
2022-11-14T18:38:45.692Z,9.22
2022-11-14T18:41:18.025Z,9.18
2022-11-14T18:43:45.279Z,9.16
2022-11-14T18:46:22.848Z,9.12
2022-11-14T18:48:53.983Z,9.08
2022-11-14T18:51:23.055Z,9.10
2022-11-14T18:53:51.416Z,9.07
2022-11-14T18:56:20.732Z,9.07
2022-11-14T18:58:47.623Z,9.06
2022-11-14T19:01:24.944Z,9.07
2022-11-14T19:03:52.844Z,9.08
2022-11-14T19:06:19.461Z,9.08
2022-11-14T19:08:45.988Z,9.10
2022-11-14T19:11:33.718Z,9.10
2022-11-14T19:14:05.375Z,9.04
2022-11-14T19:16:34.041Z,9.01
2022-11-14T19:19:01.038Z,8.92
2022-11-14T19:21:28.594Z,8.87
2022-11-14T19:23:55.424Z,8.80
2022-11-14T19:26:22.877Z,8.81
2022-11-14T19:28:49.677Z,8.76
2022-11-14T19:31:17.038Z,8.69
2022-11-14T19:33:45.353Z,8.66
2022-11-14T19:36:14.494Z,8.63
2022-11-14T19:38:44.279Z,8.60
2022-11-14T19:41:20.269Z,8.58
2022-11-14T19:43:47.672Z,8.57
2022-11-14T19:46:18.032Z,8.53
2022-11-14T19:48:44.595Z,8.51
2022-11-14T19:51:13.629Z,8.47
2022-11-14T19:53:41.026Z,8.41
2022-11-14T19:56:10.263Z,8.43
2022-11-14T19:58:37.993Z,8.44
2022-11-14T20:01:08.279Z,8.47
2022-11-14T20:03:35.319Z,8.40
2022-11-14T20:06:03.099Z,8.41
2022-11-14T20:08:29.615Z,8.37
2022-11-14T20:11:03.832Z,8.34
2022-11-14T20:13:36.613Z,8.29
2022-11-14T20:16:17.748Z,8.26
2022-11-14T20:18:46.104Z,8.25
2022-11-14T20:21:14.593Z,8.20
2022-11-14T20:23:41.303Z,8.17
2022-11-14T20:26:11.345Z,8.13
2022-11-14T20:28:43.160Z,8.17
2022-11-14T20:31:18.328Z,8.21
2022-11-14T20:33:47.473Z,8.27
2022-11-14T20:36:19.710Z,8.33
2022-11-14T20:38:47.507Z,8.38
2022-11-14T20:41:14.873Z,8.43
2022-11-14T20:43:41.766Z,8.47
2022-11-14T20:46:13.165Z,8.51
2022-11-14T20:48:40.614Z,8.53
2022-11-14T20:51:11.550Z,8.54
2022-11-14T20:53:40.255Z,8.57
2022-11-14T20:56:07.502Z,8.55
2022-11-14T20:58:34.234Z,8.55
2022-11-14T21:01:01.188Z,8.54
2022-11-14T21:03:31.982Z,8.52
2022-11-14T21:06:00.953Z,8.48
2022-11-14T21:08:29.016Z,8.50
2022-11-14T21:11:01.362Z,8.56
2022-11-14T21:13:46.700Z,8.58
2022-11-14T21:16:16.249Z,8.58
2022-11-14T21:18:47.723Z,8.61
2022-11-14T21:21:17.338Z,8.70
2022-11-14T21:23:45.332Z,8.71
2022-11-14T21:26:15.851Z,8.71
2022-11-14T21:28:44.988Z,8.75
2022-11-14T21:31:17.201Z,8.77
2022-11-14T21:33:44.369Z,8.77
2022-11-14T21:36:42.789Z,8.82
2022-11-14T21:38:59.144Z,8.83
2022-11-14T21:41:27.943Z,8.82
2022-11-14T21:43:56.508Z,8.86
2022-11-14T21:46:23.934Z,8.85
2022-11-14T21:48:51.231Z,8.84
2022-11-14T21:51:23.065Z,8.85
2022-11-14T21:53:54.270Z,8.85
2022-11-14T21:56:24.832Z,8.88
2022-11-14T21:59:12.071Z,8.86
2022-11-14T22:02:06.546Z,8.88
2022-11-14T22:04:33.972Z,8.90
2022-11-14T22:07:07.945Z,8.90
2022-11-14T22:09:34.936Z,8.92
2022-11-14T22:12:01.827Z,8.95
2022-11-14T22:14:29.795Z,8.94
2022-11-14T22:16:57.869Z,8.99
2022-11-14T22:19:24.628Z,9.02
2022-11-14T22:21:51.699Z,9.02
2022-11-14T22:24:18.210Z,9.03
2022-11-14T22:26:44.701Z,9.06
2022-11-14T22:29:15.237Z,9.07
2022-11-14T22:31:41.729Z,9.08
2022-11-14T22:34:08.319Z,9.07
2022-11-14T22:36:35.732Z,9.11
2022-11-14T22:39:02.611Z,9.15
2022-11-14T22:41:32.967Z,9.15
2022-11-14T22:44:00.805Z,9.20
2022-11-14T22:46:28.405Z,9.23
2022-11-14T22:48:55.694Z,9.26
2022-11-14T22:51:24.709Z,9.27
2022-11-14T22:53:54.135Z,9.29
2022-11-14T22:56:23.027Z,9.31
2022-11-14T22:58:49.940Z,9.32
2022-11-14T23:01:22.128Z,9.37
2022-11-14T23:03:54.307Z,9.40
2022-11-14T23:06:21.975Z,9.37
2022-11-14T23:08:48.645Z,9.41
2022-11-14T23:11:21.475Z,9.45
2022-11-14T23:13:50.170Z,9.47
2022-11-14T23:16:19.857Z,9.52
2022-11-14T23:18:47.504Z,9.61
2022-11-14T23:21:17.198Z,9.59
2022-11-14T23:23:43.697Z,9.65
2022-11-14T23:26:15.959Z,9.66
2022-11-14T23:28:42.813Z,9.67
2022-11-14T23:31:10.509Z,9.72
2022-11-14T23:33:36.967Z,9.77
2022-11-14T23:36:03.965Z,9.82
2022-11-14T23:38:33.391Z,9.83
2022-11-14T23:41:01.473Z,9.87
2022-11-14T23:43:29.419Z,9.90
2022-11-14T23:45:56.835Z,9.89
2022-11-14T23:48:23.781Z,9.92
2022-11-14T23:50:55.482Z,10.20
2022-11-14T23:53:23.100Z,10.62
2022-11-14T23:55:54.336Z,10.79
2022-11-14T23:58:22.809Z,10.83
